Time;durP1;ratioP1;P1;durP2;ratioP2;P2;SDS_P1;SDS_P2;PMS_P1;PMS_P2;Temp;Humidity;BMP_temperature;BMP_pressure;BME280_temperature;BME280_humidity;BME280_pressure;Samples;Min_cycle;Max_cycle;Signal;HPM_P1;HPM_P2
2021/03/09 00:02:05;;;;;;;;;;;;;;;-4.84;75.00;100116.16;1714949;83;21965;-69
2021/03/09 00:04:33;;;;;;;;;;;;;;;-4.86;74.95;100116.14;1714952;83;20454;-69
2021/03/09 00:07:01;;;;;;;;;;;;;;;-4.86;74.97;100111.48;1715000;83;20508;-70
2021/03/09 00:09:29;;;;;;;;;;;;;;;-4.88;74.89;100111.47;1714929;83;20753;-68
2021/03/09 00:11:58;;;;;;;;;;;;;;;-4.91;74.88;100112.72;1714972;83;20158;-69
2021/03/09 00:14:26;;;;;;;;;;;;;;;-4.93;74.93;100105.92;1714972;83;21952;-68
2021/03/09 00:16:54;;;;;;;;;;;;;;;-4.96;74.84;100119.45;1714942;83;20468;-68
2021/03/09 00:19:22;;;;;;;;;;;;;;;-4.97;74.89;100124.09;1715333;82;20542;-68
2021/03/09 00:21:50;;;;;;;;;;;;;;;-4.97;74.72;100120.70;1715462;82;20691;-69
2021/03/09 00:24:18;;;;;;;;;;;;;;;-5.01;74.63;100127.44;1715427;82;20149;-68
2021/03/09 00:26:48;;;;;;;;;;;;;;;-5.01;74.59;100129.13;1715448;83;21979;-69
2021/03/09 00:29:16;;;;;;;;;;;;;;;-5.03;74.57;100118.96;1715459;83;20531;-69
2021/03/09 00:31:43;;;;;;;;;;;;;;;-5.01;74.43;100117.28;1715445;83;20121;-70
2021/03/09 00:34:12;;;;;;;;;;;;;;;-5.05;74.24;100115.14;1715431;83;20510;-69
2021/03/09 00:36:40;;;;;;;;;;;;;;;-5.10;74.13;100114.25;1715497;83;20479;-69
2021/03/09 00:39:08;;;;;;;;;;;;;;;-5.15;74.10;100123.93;1715485;83;22115;-69
2021/03/09 00:41:37;;;;;;;;;;;;;;;-5.20;74.09;100127.73;1715406;83;20141;-69
2021/03/09 00:44:05;;;;;;;;;;;;;;;-5.25;74.18;100139.94;1715433;82;20423;-69
2021/03/09 00:46:33;;;;;;;;;;;;;;;-5.31;74.07;100136.07;1715553;83;20183;-62
2021/03/09 00:49:01;;;;;;;;;;;;;;;-5.37;74.05;100140.25;1715474;83;20479;-68
2021/03/09 00:51:31;;;;;;;;;;;;;;;-5.43;74.08;100136.38;1715429;82;21205;-68
2021/03/09 00:53:59;;;;;;;;;;;;;;;-5.47;74.22;100136.33;1715382;83;20470;-64
2021/03/09 00:56:28;;;;;;;;;;;;;;;-5.49;74.33;100143.08;1715463;83;20141;-69
2021/03/09 00:58:56;;;;;;;;;;;;;;;-5.53;74.28;100145.14;1715396;83;21030;-67
2021/03/09 01:01:24;;;;;;;;;;;;;;;-5.56;74.49;100147.23;1715471;83;20157;-68
2021/03/09 01:03:52;;;;;;;;;;;;;;;-5.58;74.50;100142.55;1715416;82;21992;-69
2021/03/09 01:06:20;;;;;;;;;;;;;;;-5.60;74.54;100137.06;1715365;83;21811;-69
2021/03/09 01:08:48;;;;;;;;;;;;;;;-5.60;74.55;100137.06;1715460;83;20379;-69
2021/03/09 01:11:16;;;;;;;;;;;;;;;-5.63;74.59;100140.83;1715400;83;20669;-69
2021/03/09 01:13:44;;;;;;;;;;;;;;;-5.68;74.70;100139.52;1715551;83;20474;-69
2021/03/09 01:16:12;;;;;;;;;;;;;;;-5.69;74.76;100150.91;1715428;83;21960;-67
2021/03/09 01:18:40;;;;;;;;;;;;;;;-5.72;74.75;100144.97;1715095;81;20260;-66
2021/03/09 01:21:08;;;;;;;;;;;;;;;-5.75;74.75;100151.27;1714927;83;20380;-69
2021/03/09 01:23:36;;;;;;;;;;;;;;;-5.76;74.87;100152.52;1714866;82;20405;-69
2021/03/09 01:26:04;;;;;;;;;;;;;;;-5.79;74.89;100152.06;1714913;83;20471;-68
2021/03/09 01:28:32;;;;;;;;;;;;;;;-5.80;74.88;100157.12;1714928;82;22280;-64
2021/03/09 01:31:00;;;;;;;;;;;;;;;-5.84;74.88;100159.18;1714882;83;20475;-69
2021/03/09 01:33:28;;;;;;;;;;;;;;;-5.87;74.95;100157.88;1714889;83;20136;-69
2021/03/09 01:35:56;;;;;;;;;;;;;;;-5.89;74.94;100162.95;1714879;83;20121;-69
2021/03/09 01:38:24;;;;;;;;;;;;;;;-5.91;75.09;100161.23;1714924;83;20380;-68
2021/03/09 01:40:54;;;;;;;;;;;;;;;-5.90;75.24;100165.47;1714890;83;21332;-69
2021/03/09 01:43:22;;;;;;;;;;;;;;;-5.90;75.26;100168.86;1714701;83;20189;-65
2021/03/09 01:45:50;;;;;;;;;;;;;;;-5.89;75.24;100165.50;1714876;83;20479;-68
2021/03/09 01:48:21;;;;;;;;;;;;;;;-5.88;75.33;100167.16;1710860;82;20845;-66
2021/03/09 01:50:49;;;;;;;;;;;;;;;-5.87;75.21;100166.75;1714947;83;20150;-64
2021/03/09 01:53:17;;;;;;;;;;;;;;;-5.88;75.03;100168.84;1714925;83;22003;-67
2021/03/09 01:55:45;;;;;;;;;;;;;;;-5.90;74.97;100166.33;1714888;83;20442;-68
2021/03/09 01:58:13;;;;;;;;;;;;;;;-5.92;75.08;100172.21;1714983;82;20462;-69
2021/03/09 02:00:42;;;;;;;;;;;;;;;-5.94;75.14;100170.07;1714888;83;20480;-66
2021/03/09 02:03:10;;;;;;;;;;;;;;;-5.95;75.10;100168.36;1715018;83;20388;-69
2021/03/09 02:05:38;;;;;;;;;;;;;;;-5.97;75.12;100179.75;1714905;83;21942;-67
2021/03/09 02:08:06;;;;;;;;;;;;;;;-5.97;75.12;100180.17;1714832;82;20476;-68
2021/03/09 02:10:35;;;;;;;;;;;;;;;-5.97;75.18;100177.22;1714916;83;20121;-69
2021/03/09 02:13:25;;;;;;;;;;;;;;;-5.97;75.16;100181.02;1715036;83;20508;-69
2021/03/09 02:16:12;;;;;;;;;;;;;;;-5.96;75.14;100181.88;1715181;82;20149;-69
2021/03/09 02:18:54;;;;;;;;;;;;;;;-5.97;75.09;100183.55;1714876;82;21193;-68
2021/03/09 02:21:55;;;;;;;;;;;;;;;-5.98;75.03;100183.13;1715573;83;20702;-69
2021/03/09 02:24:32;;;;;;;;;;;;;;;-6.00;74.99;100184.81;1715504;83;20121;-70
2021/03/09 02:27:26;;;;;;;;;;;;;;;-6.00;75.02;100187.34;1715566;83;20161;-68
2021/03/09 02:29:57;;;;;;;;;;;;;;;-6.02;75.02;100187.75;1715604;83;20396;-61
2021/03/09 02:32:25;;;;;;;;;;;;;;;-6.02;74.92;100197.88;1715632;83;22237;-63
2021/03/09 02:34:57;;;;;;;;;;;;;;;-6.01;74.92;100200.00;1715572;83;20145;-61
2021/03/09 02:37:31;;;;;;;;;;;;;;;-6.00;74.82;100209.31;1715547;83;20157;-60
2021/03/09 02:39:59;;;;;;;;;;;;;;;-6.01;74.73;100216.06;1715543;82;20583;-62
2021/03/09 02:42:28;;;;;;;;;;;;;;;-6.01;74.67;100213.95;1715552;83;20388;-60
2021/03/09 02:44:58;;;;;;;;;;;;;;;-6.01;74.64;100213.95;1715640;83;21937;-69
2021/03/09 02:47:26;;;;;;;;;;;;;;;-6.02;74.50;100216.90;1715526;83;20141;-69
2021/03/09 02:49:54;;;;;;;;;;;;;;;-6.03;74.50;100229.13;1715605;83;20137;-69
2021/03/09 02:52:23;;;;;;;;;;;;;;;-6.02;74.49;100230.84;1715491;83;20411;-68
2021/03/09 02:54:51;;;;;;;;;;;;;;;-6.03;74.52;100227.87;1715567;83;20161;-69
2021/03/09 02:57:19;;;;;;;;;;;;;;;-6.03;74.50;100222.80;1715554;83;21961;-68
2021/03/09 02:59:47;;;;;;;;;;;;;;;-6.00;74.50;100226.64;1715472;83;20137;-62
2021/03/09 03:02:17;;;;;;;;;;;;;;;-6.01;74.50;100226.63;1715542;83;20485;-62
2021/03/09 03:04:47;;;;;;;;;;;;;;;-6.01;74.47;100230.01;1715444;83;20420;-60
2021/03/09 03:07:15;;;;;;;;;;;;;;;-6.01;74.36;100238.03;1715646;83;20483;-69
2021/03/09 03:09:43;;;;;;;;;;;;;;;-6.00;74.43;100247.34;1715557;83;21884;-68
2021/03/09 03:12:12;;;;;;;;;;;;;;;-6.01;74.48;100245.22;1715445;83;20205;-69
2021/03/09 03:14:41;;;;;;;;;;;;;;;-5.98;74.62;100248.18;1715596;82;20146;-70
2021/03/09 03:17:09;;;;;;;;;;;;;;;-5.94;74.73;100253.31;1715445;83;20141;-69
2021/03/09 03:19:39;;;;;;;;;;;;;;;-5.91;74.71;100254.63;1713744;82;20515;-69
2021/03/09 03:22:09;;;;;;;;;;;;;;;-5.86;74.76;100263.53;1715055;83;22239;-68
2021/03/09 03:24:37;;;;;;;;;;;;;;;-5.83;74.50;100265.70;1714896;83;20209;-69
2021/03/09 03:27:05;;;;;;;;;;;;;;;-5.80;74.30;100267.42;1715090;83;20399;-69
2021/03/09 03:29:33;;;;;;;;;;;;;;;-5.82;73.89;100272.48;1714936;83;20779;-69
2021/03/09 03:32:02;;;;;;;;;;;;;;;-5.81;73.52;100269.11;1715022;83;20463;-69
2021/03/09 03:34:30;;;;;;;;;;;;;;;-5.80;73.13;100272.08;1714992;83;21205;-70
2021/03/09 03:36:58;;;;;;;;;;;;;;;-5.78;72.81;100275.91;1715014;83;20622;-70
2021/03/09 03:39:26;;;;;;;;;;;;;;;-5.78;72.34;100275.91;1715008;83;20495;-68
2021/03/09 03:41:55;;;;;;;;;;;;;;;-5.81;72.00;100283.05;1714914;83;20610;-66
2021/03/09 03:44:23;;;;;;;;;;;;;;;-5.83;71.78;100278.38;1715069;82;20153;-66
2021/03/09 03:46:51;;;;;;;;;;;;;;;-5.85;71.71;100280.04;1715002;83;21940;-66
2021/03/09 03:49:20;;;;;;;;;;;;;;;-5.84;71.67;100282.16;1714926;82;20554;-68
2021/03/09 03:51:50;;;;;;;;;;;;;;;-5.81;72.16;100283.47;1714944;83;20487;-65
2021/03/09 03:54:30;;;;;;;;;;;;;;;-5.80;71.51;100283.49;1714939;82;20137;-64
2021/03/09 03:57:13;;;;;;;;;;;;;;;-5.81;71.16;100284.33;1715011;83;20137;-64
2021/03/09 03:59:42;;;;;;;;;;;;;;;-5.82;70.90;100286.84;1715007;83;22299;-63
2021/03/09 04:02:11;;;;;;;;;;;;;;;-5.84;70.69;100289.35;1714915;82;20161;-65
2021/03/09 04:04:41;;;;;;;6.80;5.95;;;;;;;-5.76;79.81;100289.05;1712389;83;20150;-66
2021/03/09 04:07:09;;;;;;;4.72;4.28;;;;;;;-2.75;93.30;100280.70;1712379;83;21076;-64
2021/03/09 04:09:40;;;;;;;5.15;3.75;;;;;;;0.14;73.49;100263.27;1712277;83;21510;-66
2021/03/09 04:12:10;;;;;;;5.72;4.08;;;;;;;0.40;64.04;100271.98;1712382;83;22333;-63
2021/03/09 04:14:38;;;;;;;6.37;4.42;;;;;;;-0.15;60.62;100281.05;1712412;83;20953;-67
2021/03/09 04:17:07;;;;;;;5.25;4.25;;;;;;;-0.87;59.47;100279.45;1676237;84;20992;-68
2021/03/09 04:19:36;;;;;;;5.55;4.47;;;;;;;-1.60;58.92;100286.61;1651752;85;21646;-68
2021/03/09 04:22:04;;;;;;;8.90;5.10;;;;;;;-2.32;59.92;100300.71;1651823;87;21586;-68
2021/03/09 04:24:33;;;;;;;9.90;5.65;;;;;;;-2.93;60.43;100304.47;1683877;85;22144;-68
2021/03/09 04:27:01;;;;;;;9.95;6.08;;;;;;;-3.44;60.83;100303.84;1683807;85;21567;-68
2021/03/09 04:29:30;;;;;;;9.38;6.30;;;;;;;-3.90;61.35;100310.38;1682284;85;21491;-68
2021/03/09 04:31:58;;;;;;;9.98;4.75;;;;;;;-4.27;63.39;100315.19;1676181;84;21517;-67
2021/03/09 04:34:27;;;;;;;18.80;5.70;;;;;;;-4.37;75.04;100321.03;1651857;87;21542;-63
2021/03/09 04:36:55;;;;;;;7.78;5.35;;;;;;;-1.57;80.96;100308.27;1651911;87;22349;-65
2021/03/09 04:39:24;;;;;;;8.53;5.47;;;;;;;0.71;63.83;100310.91;1651850;87;21625;-68
2021/03/09 04:41:52;;;;;;;6.50;5.17;;;;;;;0.61;57.67;100318.69;1651876;87;21672;-64
2021/03/09 04:44:21;;;;;;;7.05;5.05;;;;;;;-0.09;55.80;100311.71;1651837;87;21537;-61
2021/03/09 04:46:49;;;;;;;7.78;5.37;;;;;;;-0.85;55.90;100319.07;1651920;87;21688;-65
2021/03/09 04:49:18;;;;;;;7.05;5.50;;;;;;;-1.56;55.80;100329.12;1651833;87;22203;-63
2021/03/09 04:51:47;;;;;;;7.97;5.47;;;;;;;-2.23;56.32;100327.50;1651787;87;21628;-64
2021/03/09 04:54:15;;;;;;;6.17;5.58;;;;;;;-2.80;57.37;100339.30;1651913;87;21621;-60
2021/03/09 04:56:45;;;;;;;11.00;6.05;;;;;;;-3.27;58.92;100335.34;1651805;87;21072;-60
2021/03/09 04:59:14;;;;;;;8.68;6.50;;;;;;;-3.62;59.80;100339.41;1651884;87;21043;-61
2021/03/09 05:01:42;;;;;;;11.63;5.50;;;;;;;-3.90;60.13;100341.75;1651816;87;21328;-62
2021/03/09 05:04:11;;;;;;;11.55;6.17;;;;;;;-3.52;75.85;100348.77;1651790;87;21543;-63
2021/03/09 05:06:39;;;;;;;8.63;5.95;;;;;;;-1.51;64.47;100339.75;1651828;87;21533;-62
2021/03/09 05:09:08;;;;;;;6.97;5.47;;;;;;;-1.06;59.14;100342.58;1651784;87;21597;-61
2021/03/09 05:11:38;;;;;;;9.75;5.70;;;;;;;-1.21;57.47;100349.48;1651746;87;20976;-68
2021/03/09 05:14:06;;;;;;;10.28;6.08;;;;;;;-1.49;57.86;100350.81;1651814;87;22186;-67
2021/03/09 05:16:35;;;;;;;8.30;5.40;;;;;;;-1.75;57.30;100361.09;1651843;87;21581;-67
2021/03/09 05:19:03;;;;;;;7.17;5.42;;;;;;;-1.98;57.74;100370.44;1651800;87;21605;-68
2021/03/09 05:21:32;;;;;;;9.53;6.17;;;;;;;-2.13;58.50;100371.73;1651720;86;21634;-67
2021/03/09 05:24:01;;;;;;;6.20;5.53;;;;;;;-2.22;58.54;100376.39;1651808;87;21534;-67
2021/03/09 05:26:29;;;;;;;9.70;6.22;;;;;;;-2.31;58.11;100376.37;1651783;87;21419;-68
2021/03/09 05:28:59;;;;;;;11.38;6.08;;;;;;;-2.45;58.19;100377.65;1651776;87;21534;-66
2021/03/09 05:31:27;;;;;;;7.28;5.72;;;;;;;-2.58;57.99;100378.88;1651814;87;21039;-68
2021/03/09 05:33:56;;;;;;;8.78;6.30;;;;;;;-2.72;58.18;100389.88;1651787;87;21581;-66
2021/03/09 05:36:25;;;;;;;9.23;5.95;;;;;;;-2.85;58.43;100390.70;1651805;87;20976;-68
2021/03/09 05:38:54;;;;;;;9.55;5.95;;;;;;;-2.95;58.46;100394.05;1651774;87;22247;-66
2021/03/09 05:41:22;;;;;;;6.22;5.15;;;;;;;-3.08;58.60;100399.93;1651737;87;21558;-62
2021/03/09 05:43:54;;;;;;;6.62;5.40;;;;;;;-3.20;58.69;100408.80;1651807;87;20967;-63
2021/03/09 05:46:23;;;;;;;7.37;5.60;;;;;;;-3.32;59.18;100403.63;1651810;86;21669;-68
2021/03/09 05:48:52;;;;;;;10.18;6.03;;;;;;;-3.44;59.19;100409.07;1651752;87;21530;-61
2021/03/09 05:51:22;;;;;;;8.93;5.80;;;;;;;-3.49;59.13;100425.16;1622010;87;21163;-63
2021/03/09 05:53:51;;;;;;;6.72;5.65;;;;;;;-3.56;59.53;100425.53;1651075;87;21600;-67
2021/03/09 05:56:19;;;;;;;7.33;6.30;;;;;;;-3.59;59.86;100430.59;1651673;87;21527;-67
2021/03/09 05:58:48;;;;;;;5.95;5.33;;;;;;;-3.64;60.74;100436.09;1651616;87;21542;-65
2021/03/09 06:01:16;;;;;;;8.05;5.85;;;;;;;-3.62;61.62;100441.20;1635857;87;21222;-69
2021/03/09 06:03:45;;;;;;;7.37;5.53;;;;;;;-3.58;61.73;100447.57;1668116;84;22185;-69
2021/03/09 06:06:14;;;;;;;5.60;5.03;;;;;;;-3.54;60.93;100445.48;1642109;85;21708;-59
2021/03/09 06:08:42;;;;;;;5.90;5.25;;;;;;;-3.54;60.25;100445.90;1652327;85;21679;-65
2021/03/09 06:11:20;;;;;;;6.58;5.03;;;;;;;-3.58;60.26;100445.02;1668350;84;21614;-76
2021/03/09 06:13:49;;;;;;;8.68;6.10;;;;;;;-3.61;59.96;100448.00;1643240;87;21637;-78
2021/03/09 06:16:18;;;;;;;7.15;5.42;;;;;;;-3.64;59.85;100449.24;1637468;87;22606;-61
2021/03/09 06:18:58;;;;;;;10.25;5.45;;;;;;;-3.63;59.83;100454.34;1665017;84;21070;-64
2021/03/09 06:21:28;;;;;;;9.25;5.87;;;;;;;-3.62;59.82;100454.78;1666161;85;21076;-70
2021/03/09 06:24:01;;;;;;;10.38;6.62;;;;;;;-3.57;59.96;100453.52;1662564;85;21586;-61
2021/03/09 06:26:38;;;;;;;7.95;5.37;;;;;;;-3.50;60.00;100465.03;1659321;84;21151;-68
2021/03/09 06:29:16;;;;;;;;;;;;;;;-3.41;60.11;100472.74;1664197;85;21386;-64
2021/03/09 06:31:58;;;;;;;10.63;5.53;;;;;;;-3.30;60.19;100475.38;1669665;85;20301;-68
2021/03/09 06:34:33;;;;;;;5.10;4.58;;;;;;;-3.15;60.88;100479.27;1665845;85;21076;-69
2021/03/09 06:37:21;;;;;;;5.33;4.83;;;;;;;-2.86;61.71;100477.34;1743033;80;21062;-63
2021/03/09 06:40:06;;;;;;;5.93;4.93;;;;;;;-2.53;60.68;100479.17;1764414;79;21589;-70
2021/03/09 06:42:39;;;;;;;6.47;4.20;;;;;;;-2.19;60.06;100480.13;1735201;82;21314;-69
2021/03/09 06:45:16;;;;;;;6.30;4.87;;;;;;;-1.90;56.44;100487.84;1734150;79;21083;-64
2021/03/09 06:47:48;;;;;;;8.20;6.35;;;;;;;-1.79;54.45;100487.02;1769326;80;21617;-69
2021/03/09 06:50:19;;;;;;;21.30;11.43;;;;;;;-1.74;53.33;100485.31;1765588;81;21039;-60
2021/03/09 06:53:02;;;;;;;11.90;7.20;;;;;;;-1.75;53.03;100495.10;1770870;81;21751;-71
2021/03/09 06:55:32;;;;;;;10.05;6.25;;;;;;;-1.84;52.27;100504.44;1769641;81;21200;-65
2021/03/09 06:58:10;;;;;;;8.98;4.78;;;;;;;-1.90;52.29;100500.59;1762192;79;21063;-61
2021/03/09 07:00:41;;;;;;;23.15;5.53;;;;;;;-1.98;52.72;100500.58;1771264;81;21667;-65
2021/03/09 07:03:39;;;;;;;19.50;6.40;;;;;;;-2.04;52.13;100510.80;1706751;82;21652;-69
2021/03/09 07:06:08;;;;;;;26.73;7.85;;;;;;;-2.13;51.41;100511.62;1775543;79;21040;-69
2021/03/09 07:08:37;;;;;;;27.75;11.40;;;;;;;-2.32;52.03;100513.67;1766801;80;22481;-66
2021/03/09 07:11:05;;;;;;;21.17;9.75;;;;;;;-2.43;52.44;100511.10;1767173;81;21621;-64
2021/03/09 07:13:35;;;;;;;19.87;9.23;;;;;;;-2.55;52.86;100510.19;1760538;81;21007;-70
2021/03/09 07:16:05;;;;;;;11.73;7.37;;;;;;;-2.66;53.88;100513.09;1689679;83;21036;-67
2021/03/09 07:18:34;;;;;;;10.00;6.37;;;;;;;-2.74;54.59;100519.00;1736208;82;21585;-69
2021/03/09 07:21:04;;;;;;;14.13;8.48;;;;;;;-2.65;54.44;100518.20;1711896;82;22189;-69
2021/03/09 07:23:39;;;;;;;9.20;5.70;;;;;;;-2.44;55.28;100519.59;1775305;79;20940;-73
2021/03/09 07:26:15;;;;;;;12.20;4.37;;;;;;;-2.10;55.03;100511.63;1776372;79;21380;-72
2021/03/09 07:28:44;;;;;;;7.37;4.70;;;;;;;-1.65;56.24;100524.05;1770981;81;21622;-64
2021/03/09 07:31:13;;;;;;;5.53;4.62;;;;;;;-1.25;55.85;100532.58;1762092;81;21032;-67
2021/03/09 07:33:42;;;;;;;8.65;6.30;;;;;;;-0.88;53.07;100518.48;1758258;80;21625;-65
2021/03/09 07:36:11;;;;;;;14.93;8.25;;;;;;;-0.59;52.51;100517.97;1757869;79;21640;-68
2021/03/09 07:38:41;;;;;;;11.30;4.92;;;;;;;-0.29;51.27;100515.71;1763415;81;20992;-65
2021/03/09 07:41:09;;;;;;;6.15;4.47;;;;;;;-0.07;48.90;100516.47;1716761;81;21565;-62
2021/03/09 07:43:45;;;;;;;7.28;4.62;;;;;;;-0.08;47.29;100515.63;1763275;81;21071;-65
2021/03/09 07:46:13;;;;;;;6.53;4.20;;;;;;;-0.13;48.01;100522.47;1763364;79;22511;-64
2021/03/09 07:48:41;;;;;;;12.70;4.00;;;;;;;-0.12;47.10;100516.49;1756213;81;21630;-63
2021/03/09 07:51:11;;;;;;;6.65;4.25;;;;;;;-0.03;45.91;100520.72;1707498;82;21812;-68
2021/03/09 07:53:38;;;;;;;5.40;3.87;;;;;;;0.05;44.29;100515.53;1702527;84;21111;-66
2021/03/09 07:56:12;;;;;;;4.58;3.80;;;;;;;0.13;44.00;100518.91;1637585;82;21036;-65
2021/03/09 07:58:44;;;;;;;5.03;3.87;;;;;;;0.24;43.95;100517.13;1708777;82;23489;-65
2021/03/09 08:01:12;;;;;;;5.67;4.40;;;;;;;0.38;44.14;100521.75;1709558;82;21697;-68
2021/03/09 08:03:42;;;;;;;6.05;4.15;;;;;;;0.59;45.35;100524.13;1711773;82;21665;-63
2021/03/09 08:06:15;;;;;;;5.55;3.98;;;;;;;0.82;46.48;100533.33;1712974;82;21000;-66
2021/03/09 08:08:53;;;;;;;8.93;3.72;;;;;;;0.95;45.83;100530.66;1711993;82;21562;-67
2021/03/09 08:11:26;;;;;;;7.87;3.67;;;;;;;1.00;46.03;100534.46;1699543;84;22128;-71
2021/03/09 08:14:08;;;;;;;85.53;11.22;;;;;;;1.02;45.03;100539.58;1705384;84;22279;-67
2021/03/09 08:16:42;;;;;;;1167.03;100.07;;;;;;;0.92;45.06;100540.94;1692897;84;20996;-67
2021/03/09 08:19:38;;;;;;;31.77;7.55;;;;;;;0.80;46.05;100538.94;1723607;83;21016;-76
2021/03/09 08:22:07;;;;;;;298.82;21.05;;;;;;;0.73;45.80;100541.97;1753793;81;21585;-64
2021/03/09 08:24:48;;;;;;;46.85;6.25;;;;;;;0.80;44.09;100541.03;1752632;79;21405;-69
2021/03/09 08:27:32;;;;;;;3.85;3.22;;;;;;;0.52;41.96;100541.69;1752361;79;21152;-63
2021/03/09 08:30:26;;;;;;;5.78;3.80;;;;;;;0.17;44.07;100535.95;1752479;81;22220;-61
2021/03/09 08:33:27;;;;;;;5.75;3.85;;;;;;;-0.02;43.24;100545.03;1753923;81;21416;-67
2021/03/09 08:35:56;;;;;;;11.57;4.37;;;;;;;-0.14;43.90;100548.07;1756707;80;21660;-62
2021/03/09 08:38:24;;;;;;;6.72;4.00;;;;;;;-0.26;43.98;100554.08;1764029;80;22170;-67
2021/03/09 08:41:02;;;;;;;5.78;4.00;;;;;;;-0.50;44.18;100554.18;1731034;82;21688;-70
2021/03/09 08:43:30;;;;;;;3.85;3.52;;;;;;;-0.69;44.14;100561.03;1727989;82;21064;-71
2021/03/09 08:46:00;;;;;;;14.25;3.92;;;;;;;-0.77;45.21;100564.88;1763571;79;21023;-68
2021/03/09 08:48:45;;;;;;;27.22;4.30;;;;;;;-0.67;45.94;100568.28;1764056;80;21103;-70
2021/03/09 08:51:41;;;;;;;4.70;4.00;;;;;;;-0.48;47.58;100553.75;1766643;80;22329;-68
2021/03/09 08:54:26;;;;;;;7.12;3.67;;;;;;;-0.12;47.20;100558.73;1762270;80;22842;-70
2021/03/09 08:56:55;;;;;;;28.77;5.37;;;;;;;0.19;46.06;100559.41;1743299;81;21035;-70
2021/03/09 08:59:32;;;;;;;6.97;4.75;;;;;;;0.38;46.22;100549.07;1769596;80;20999;-69
2021/03/09 09:02:21;;;;;;;5.95;4.22;;;;;;;0.49;45.41;100554.52;1771653;79;21042;-65
2021/03/09 09:05:06;;;;;;;6.87;5.03;;;;;;;0.48;44.39;100555.37;1762870;80;21640;-75
2021/03/09 09:07:40;;;;;;;6.37;4.13;;;;;;;0.39;43.88;100564.43;1763479;79;21047;-72
2021/03/09 09:10:31;;;;;;;6.67;4.62;;;;;;;0.23;45.60;100566.66;1772867;79;21035;-73
2021/03/09 09:13:07;;;;;;;5.58;5.03;;;;;;;0.21;45.11;100568.38;1767616;79;21011;-76
2021/03/09 09:15:45;;;;;;;8.58;5.05;;;;;;;0.03;43.58;100565.89;1764224;80;21101;-70
2021/03/09 09:18:15;;;;;;;6.08;4.92;;;;;;;-0.19;44.52;100572.40;1764759;80;21261;-71
2021/03/09 09:20:47;;;;;;;4.95;4.00;;;;;;;-0.29;44.61;100568.16;1756203;80;20999;-72
2021/03/09 09:23:23;;;;;;;7.45;3.80;;;;;;;-0.21;45.72;100571.98;1758670;80;20932;-78
2021/03/09 09:25:57;;;;;;;4.10;3.60;;;;;;;-0.05;46.22;100566.80;1755822;80;21075;-74
2021/03/09 09:28:36;;;;;;;4.75;3.72;;;;;;;0.20;46.10;100570.51;1771089;80;21027;-70
2021/03/09 09:31:07;;;;;;;4.35;3.95;;;;;;;0.48;44.63;100575.03;1760834;80;21349;-75
2021/03/09 09:33:39;;;;;;;7.45;4.83;;;;;;;0.69;45.28;100576.60;1761891;80;21078;-67
2021/03/09 09:36:11;;;;;;;6.87;4.60;;;;;;;0.90;47.42;100587.96;1773971;79;21636;-69
2021/03/09 09:38:48;;;;;;;13.22;4.80;;;;;;;0.92;48.76;100586.23;1781075;80;38622;-69
2021/03/09 09:41:22;;;;;;;6.95;4.12;;;;;;;0.70;48.50;100591.12;1783161;78;21013;-80
2021/03/09 09:43:52;;;;;;;7.40;4.72;;;;;;;0.19;49.39;100586.73;1785546;80;21436;-72
2021/03/09 09:46:38;;;;;;;4.15;3.75;;;;;;;-0.31;50.03;100595.89;1772153;80;21088;-73
2021/03/09 09:49:08;;;;;;;4.12;3.65;;;;;;;-0.81;50.96;100602.84;1785038;78;21036;-66
2021/03/09 09:51:42;;;;;;;5.08;4.08;;;;;;;-1.14;50.95;100609.21;1740582;80;21107;-68
2021/03/09 09:54:13;;;;;;;5.60;4.22;;;;;;;-1.36;50.87;100606.66;1775502;80;21503;-67
2021/03/09 09:56:47;;;;;;;7.00;4.25;;;;;;;-1.41;51.16;100603.66;1775222;80;21423;-69
2021/03/09 09:59:30;;;;;;;7.75;4.05;;;;;;;-1.40;50.30;100604.09;1726818;81;21089;-74
2021/03/09 10:02:02;;;;;;;4.78;3.92;;;;;;;-1.40;50.59;100601.53;1777055;79;21048;-79
2021/03/09 10:04:34;;;;;;;4.92;4.33;;;;;;;-1.32;51.08;100606.23;1776427;80;21603;-70
2021/03/09 10:07:18;;;;;;;5.12;3.87;;;;;;;-1.25;49.63;100599.44;1740235;81;21695;-69
2021/03/09 10:10:09;;;;;;;5.53;4.87;;;;;;;-1.19;49.66;100600.69;1783143;80;21601;-73
2021/03/09 10:12:50;;;;;;;5.15;4.70;;;;;;;-1.09;49.05;100598.14;1775282;80;21012;-71
2021/03/09 10:15:23;;;;;;;5.58;4.50;;;;;;;-1.11;49.23;100609.22;1777017;80;21064;-75
2021/03/09 10:18:04;;;;;;;6.30;4.12;;;;;;;-1.14;50.90;100607.94;1789200;79;22043;-68
2021/03/09 10:20:33;;;;;;;8.35;4.33;;;;;;;-1.17;52.86;100602.39;1782688;80;21625;-73
2021/03/09 10:23:02;;;;;;;5.10;4.45;;;;;;;-1.18;53.17;100608.78;1775550;80;21194;-72
2021/03/09 10:25:32;;;;;;;7.35;4.30;;;;;;;-1.21;53.77;100609.66;1777754;79;21001;-68
2021/03/09 10:28:06;;;;;;;8.08;5.12;;;;;;;-1.22;53.83;100612.22;1790124;80;21567;-66
2021/03/09 10:30:42;;;;;;;9.55;6.33;;;;;;;-1.24;54.13;100610.93;1786789;79;21079;-70
2021/03/09 10:33:16;;;;;;;7.70;5.37;;;;;;;-1.24;53.58;100607.52;1788457;80;21030;-72
2021/03/09 10:36:12;;;;;;;5.47;4.95;;;;;;;-1.24;53.10;100608.38;1789337;79;21060;-78
2021/03/09 10:38:43;;;;;;;5.87;4.40;;;;;;;-1.18;51.92;100607.08;1789608;78;20913;-80
2021/03/09 10:41:27;;;;;;;10.23;3.70;;;;;;;-1.12;51.51;100608.36;1783562;79;21606;-72
2021/03/09 10:44:03;;;;;;;5.58;4.65;;;;;;;-1.06;49.66;100610.08;1790175;79;21076;-71
2021/03/09 10:46:45;;;;;;;3.70;3.27;;;;;;;-1.09;50.03;100607.09;1774058;79;21013;-69
2021/03/09 10:49:17;;;;;;;4.65;3.90;;;;;;;-1.02;49.04;100600.28;1788370;78;21277;-71
2021/03/09 10:54:40;;;;;;;5.00;3.83;;;;;;;-0.76;47.08;100604.08;1833358;77;28165;-68
2021/03/09 10:57:11;;;;;;;4.20;3.80;;;;;;;-0.67;46.86;100597.69;1810087;78;20986;-68
2021/03/09 10:59:39;;;;;;;6.37;4.67;;;;;;;-0.50;45.80;100598.52;1824473;77;21138;-69
2021/03/09 11:02:09;;;;;;;5.00;4.00;;;;;;;-0.40;45.40;100597.61;1813953;78;21060;-71
2021/03/09 11:04:38;;;;;;;6.28;5.45;;;;;;;-0.26;45.53;100596.73;1811126;78;21729;-72
2021/03/09 11:07:07;;;;;;;4.62;4.20;;;;;;;-0.11;44.74;100597.55;1841438;76;20978;-70
2021/03/09 11:09:38;;;;;;;5.35;3.77;;;;;;;-0.02;44.79;100589.84;1841483;76;21054;-70
2021/03/09 11:12:07;;;;;;;7.37;4.30;;;;;;;0.10;45.86;100589.33;1833053;78;21352;-71
2021/03/09 11:14:35;;;;;;;4.83;4.15;;;;;;;0.28;45.25;100595.66;1833532;78;21072;-71
2021/03/09 11:17:04;;;;;;;5.95;4.20;;;;;;;0.42;44.61;100593.84;1806611;78;21034;-74
2021/03/09 11:19:33;;;;;;;4.75;3.80;;;;;;;0.50;45.38;100596.36;1802668;78;21077;-72
2021/03/09 11:22:02;;;;;;;6.62;3.90;;;;;;;0.57;42.99;100598.88;1808110;78;21067;-74
2021/03/09 11:24:32;;;;;;;4.15;3.75;;;;;;;0.47;44.20;100605.34;1806376;78;22064;-73
2021/03/09 11:27:01;;;;;;;5.20;3.77;;;;;;;0.24;46.13;100597.38;1834529;78;20941;-72
2021/03/09 11:29:33;;;;;;;3.92;3.62;;;;;;;0.09;48.79;100600.00;1801963;79;21051;-74
2021/03/09 11:32:01;;;;;;;6.83;4.10;;;;;;;-0.04;51.38;100601.79;1801849;79;20914;-74
2021/03/09 11:34:30;;;;;;;5.67;4.45;;;;;;;-0.22;50.97;100595.44;1802333;78;21004;-74
2021/03/09 11:36:58;;;;;;;9.15;4.17;;;;;;;-0.50;51.23;100602.78;1817816;78;21205;-72
2021/03/09 11:39:28;;;;;;;5.80;5.20;;;;;;;-0.72;51.68;100606.64;1817395;78;21060;-71
2021/03/09 11:41:58;;;;;;;8.10;5.05;;;;;;;-0.89;51.47;100604.55;1820711;78;21867;-73
2021/03/09 11:44:27;;;;;;;4.85;4.20;;;;;;;-1.05;51.03;100599.84;1819048;78;21075;-71
2021/03/09 11:46:55;;;;;;;7.65;3.80;;;;;;;-1.22;50.81;100600.72;1829854;78;21511;-72
2021/03/09 11:49:24;;;;;;;3.58;3.27;;;;;;;-1.40;50.44;100596.00;1826902;78;21204;-72
2021/03/09 11:51:53;;;;;;;6.12;3.42;;;;;;;-1.59;50.69;100601.91;1827075;78;21001;-72
2021/03/09 11:54:21;;;;;;;6.17;3.90;;;;;;;-1.69;51.67;100600.21;1803312;78;21591;-75
2021/03/09 11:56:54;;;;;;;7.83;4.30;;;;;;;-1.71;51.86;100598.93;1766215;79;21004;-73
2021/03/09 11:59:22;;;;;;;10.45;5.15;;;;;;;-1.64;51.83;100602.78;1794173;79;21211;-71
2021/03/09 12:01:50;;;;;;;7.72;4.47;;;;;;;-1.55;51.39;100604.91;1783380;79;21449;-72
2021/03/09 12:04:19;;;;;;;8.80;4.58;;;;;;;-1.44;50.54;100613.87;1774674;80;21065;-67
2021/03/09 12:06:47;;;;;;;5.80;3.70;;;;;;;-1.40;49.86;100610.05;1792120;79;21665;-71
2021/03/09 12:09:18;;;;;;;5.03;4.08;;;;;;;-1.39;48.60;100609.20;1796218;79;21206;-72
2021/03/09 12:11:46;;;;;;;5.92;4.50;;;;;;;-1.44;49.07;100611.31;1791603;79;21033;-73
2021/03/09 12:14:15;;;;;;;7.33;4.80;;;;;;;-1.44;49.10;100614.72;1796282;79;21363;-73